LEBBLEVT

Guest
Details From LEBB - Bilbao
To LEVT - Vitoria
Flight Number -
Tags Generated
Created
Modified
Stats Distance 27 nm / 51 km
Max Altitude 0 ft / 0 m
Waypoints 2
Social Downloads 1
Likes 0
Share VATSIM

Download

Looking for another format? Having issues loading an existing format? Contact us
Advertisement - Login to hide

Notes

Generated

Route

LEBB LEVT

ID Type Via Altitude Latitude Longitude Leg Dist Tot Dist Heading (true) Name
O LEBB APT - 0 ft / 0 m 43.30335˚ -2.93703˚ - 0 nm - -
O LEVT APT - 0 ft / 0 m 42.87009˚ -2.73703˚ 27 nm 27 nm 161° / 161° -

Altitude Profile

Advertisement - Login to hide

LEBB

Details ICAO LEBB (BIO)
Name Bilbao
Region Spain
Timezone Europe/Madrid (UTC+2.0)
Stats Elevation 137 ft / 42 m (AMSL)
Location 43.301692° -2.917664°
Runways 2
Magnetic Variation 0.574° W

METAR

LEBB 241400Z 29010KT 260V330 9999 FEW022 22/18 Q1015 NOSIG

Decode

TAF

TAF LEBB 241100Z 2412/2512 32008KT 9999 FEW020 TX25/2414Z TN15/2506Z TEMPO 2412/2418 02010KT TEMPO 2413/2424 SHRA SCT030TCU PROB40 TEMPO 2413/2422 3000 TSRA BKN010 SCT030CB TEMPO 2421/2510 3000 BR PROB40 TEMPO 2504/2508 1400 BCFG BKN002 PROB40 TEMPO 2504/2512 SHRA SCT030TCU PROB30 TEMPO 2509/2512 3000 TSRA BKN010 SCT030CB

Decode

Departure Runways

ID Width Length Bearing (true) Bearing (mag) Surface Threshold Offset Overrun Length
10 148 ft / 45 m 6,569 ft / 2,002 m 96.66° 97.23° Asphalt 20 ft / 6 m 184 ft / 56 m
12 148 ft / 45 m 8,539 ft / 2,603 m 116.73° 117.30° Asphalt 20 ft / 6 m 197 ft / 60 m
28 148 ft / 45 m 6,569 ft / 2,002 m 276.68° 277.25° Asphalt 23 ft / 7 m 0 ft / 0 m
30 148 ft / 45 m 8,539 ft / 2,603 m 296.75° 297.32° Asphalt 1,509 ft / 460 m 171 ft / 52 m

LEVT

Details ICAO LEVT (VIT)
Name Vitoria
Region Spain
Timezone Europe/Madrid (UTC+2.0)
Stats Elevation 1,682 ft / 513 m (AMSL)
Location 42.882847° -2.724460°
Runways 1
Magnetic Variation 0.494° W

METAR

LEVT 241400Z 04004KT 010V080 9999 FEW040TCU 22/14 Q1015

Decode

TAF

TAF LEVT 241100Z 2412/2512 VRB06KT 9999 SCT020 TX25/2414Z TN11/2504Z TEMPO 2412/2424 SHRA SCT025TCU PROB40 TEMPO 2413/2421 VRB15G30KT 3000 TSRA BKN010 SCT025CB PROB30 TEMPO 2421/2424 1500 BCFG BKN005 PROB30 TEMPO 2500/2512 SHRA SCT030CB PROB30 TEMPO 2507/2512 TSRA SCT030CB

Decode

Destination Runways

ID Width Length Bearing (true) Bearing (mag) Surface Threshold Offset Overrun Length
04 148 ft / 45 m 11,481 ft / 3,500 m 35.83° 36.32° Asphalt 0 ft / 0 m 164 ft / 50 m
22 148 ft / 45 m 11,481 ft / 3,500 m 215.85° 216.34° Asphalt 0 ft / 0 m 164 ft / 50 m

Approach Navaids

Runway Type Ident Frequency Range Bearing (true) Bearing (mag) Slope Elevation
04 Localiser VTO 108.90 MHz 18 nm / 33 km 35.85° 36.35° - 1,682 ft / 513 m (AMSL)
04 Glidescope VTO 108.90 MHz 10 nm / 19 km 35.84° 36.33° 3.00° 1,682 ft / 513 m (AMSL)
04 DME VTO 108.90 MHz 18 nm / 33 km - - - 1,681 ft / 512 m (AMSL)

Popular Alternatives